createdAt,value
2023-01-25T00:00:48.887Z,8.77
2023-01-25T00:03:16.777Z,9.20
2023-01-25T00:05:44.633Z,9.40
2023-01-25T00:08:12.437Z,8.73
2023-01-25T00:10:40.323Z,8.43
2023-01-25T00:13:08.132Z,8.13
2023-01-25T00:15:37.247Z,8.85
2023-01-25T00:18:05.264Z,9.35
2023-01-25T00:20:33.077Z,8.60
2023-01-25T00:23:00.858Z,7.68
2023-01-25T00:25:28.698Z,7.57
2023-01-25T00:27:56.609Z,8.38
2023-01-25T00:30:43.040Z,8.10
2023-01-25T00:33:55.003Z,7.78
2023-01-25T00:36:35.350Z,6.68
2023-01-25T00:39:03.176Z,6.95
2023-01-25T00:41:30.964Z,7.05
2023-01-25T00:43:59.525Z,7.22
2023-01-25T00:46:27.361Z,6.60
2023-01-25T00:48:56.695Z,6.80
2023-01-25T00:51:25.485Z,7.22
2023-01-25T00:54:48.238Z,7.45
2023-01-25T00:57:16.280Z,8.45
2023-01-25T00:59:45.271Z,7.57
2023-01-25T01:02:13.256Z,8.90
2023-01-25T01:04:42.631Z,7.78
2023-01-25T01:07:47.594Z,7.55
2023-01-25T01:10:15.573Z,7.53
2023-01-25T01:12:43.389Z,7.25
2023-01-25T01:16:06.025Z,7.25
2023-01-25T01:19:28.531Z,6.85
2023-01-25T01:21:57.657Z,6.28
2023-01-25T01:24:25.665Z,6.95
2023-01-25T01:26:53.396Z,7.10
2023-01-25T01:29:21.184Z,7.63
2023-01-25T01:31:51.288Z,7.55
2023-01-25T01:34:19.722Z,7.65
2023-01-25T01:36:47.705Z,7.70
2023-01-25T01:39:16.871Z,6.88
2023-01-25T01:41:44.777Z,7.45
2023-01-25T01:44:17.760Z,8.35
2023-01-25T01:46:50.099Z,6.82
2023-01-25T01:49:23.404Z,6.68
2023-01-25T01:51:53.738Z,7.60
2023-01-25T01:54:26.277Z,6.50
2023-01-25T01:56:59.986Z,7.78
2023-01-25T01:59:32.386Z,7.80
2023-01-25T02:02:00.257Z,6.95
2023-01-25T02:04:29.474Z,6.07
2023-01-25T02:07:01.915Z,6.53
2023-01-25T02:09:32.582Z,7.18
2023-01-25T02:12:01.437Z,6.53
2023-01-25T02:14:30.711Z,6.65
2023-01-25T02:16:58.988Z,6.13
2023-01-25T02:19:39.282Z,5.57
2023-01-25T02:22:13.273Z,6.47
2023-01-25T02:24:48.224Z,5.10
2023-01-25T02:27:17.850Z,5.28
2023-01-25T02:29:46.373Z,5.40
2023-01-25T02:32:15.130Z,4.95
2023-01-25T02:34:42.917Z,5.85
2023-01-25T02:37:14.092Z,5.80
2023-01-25T02:39:42.436Z,7.07
2023-01-25T02:42:10.248Z,5.18
2023-01-25T02:44:39.871Z,5.05
2023-01-25T02:47:07.784Z,5.75
2023-01-25T02:49:36.962Z,6.63
2023-01-25T02:52:05.823Z,5.20
2023-01-25T02:54:33.921Z,5.65
2023-01-25T02:57:01.685Z,6.38
2023-01-25T02:59:29.645Z,5.65
2023-01-25T03:01:58.752Z,5.72
2023-01-25T03:04:26.580Z,4.65
2023-01-25T03:06:54.490Z,5.60
2023-01-25T03:09:22.369Z,5.75
2023-01-25T03:11:50.266Z,5.72
2023-01-25T03:14:18.154Z,4.63
2023-01-25T03:16:45.957Z,5.75
2023-01-25T03:19:15.150Z,6.07
2023-01-25T03:21:42.907Z,5.20
2023-01-25T03:24:11.973Z,4.63
2023-01-25T03:26:53.709Z,4.30
2023-01-25T03:29:21.462Z,4.30
2023-01-25T03:31:49.495Z,4.32
2023-01-25T03:34:18.801Z,4.40
2023-01-25T03:36:46.606Z,5.18
2023-01-25T03:39:14.508Z,4.68
2023-01-25T03:41:42.302Z,4.25
2023-01-25T03:44:11.373Z,4.55
2023-01-25T03:46:39.249Z,3.60
2023-01-25T03:49:07.575Z,4.88
2023-01-25T03:51:36.854Z,5.10
2023-01-25T03:54:05.029Z,4.85
2023-01-25T03:56:32.813Z,5.05
2023-01-25T03:59:00.578Z,4.72
2023-01-25T04:01:28.409Z,4.30
2023-01-25T04:03:56.172Z,4.63
2023-01-25T04:06:24.144Z,4.65
2023-01-25T04:08:53.238Z,3.80
2023-01-25T04:11:21.160Z,4.72
2023-01-25T04:13:48.967Z,5.55
2023-01-25T04:16:16.785Z,4.38
2023-01-25T04:18:45.020Z,4.55
2023-01-25T04:21:12.753Z,4.60
2023-01-25T04:23:40.633Z,5.35
2023-01-25T04:26:12.471Z,5.93
2023-01-25T04:28:40.269Z,5.43
2023-01-25T04:31:08.085Z,5.28
2023-01-25T04:33:35.987Z,5.05
2023-01-25T04:36:03.944Z,4.05
2023-01-25T04:38:31.785Z,4.68
2023-01-25T04:40:59.593Z,4.75
2023-01-25T04:43:28.743Z,5.38
2023-01-25T04:45:56.595Z,4.72
2023-01-25T04:48:24.396Z,5.00
2023-01-25T04:50:52.263Z,5.72
2023-01-25T04:53:20.233Z,5.22
2023-01-25T04:55:48.511Z,4.68
2023-01-25T04:58:16.447Z,5.05
2023-01-25T05:00:45.542Z,5.90
2023-01-25T05:03:13.312Z,5.15
2023-01-25T05:05:44.204Z,5.53
2023-01-25T05:08:12.062Z,5.35
2023-01-25T05:10:39.889Z,5.05
2023-01-25T05:13:07.672Z,5.15
2023-01-25T05:15:35.776Z,5.75
2023-01-25T05:18:05.359Z,5.30
2023-01-25T05:20:33.246Z,6.20
2023-01-25T05:23:01.078Z,5.90
2023-01-25T05:25:48.726Z,5.97
2023-01-25T05:28:16.587Z,6.65
2023-01-25T05:30:44.456Z,5.68
2023-01-25T05:33:13.601Z,5.78
2023-01-25T05:35:41.481Z,5.43
2023-01-25T05:38:09.298Z,6.78
2023-01-25T05:40:37.148Z,5.28
2023-01-25T05:43:07.132Z,5.88
2023-01-25T05:45:34.962Z,6.15
2023-01-25T05:48:02.743Z,6.72
2023-01-25T05:50:31.897Z,6.50
2023-01-25T05:52:59.631Z,6.63
2023-01-25T05:55:27.601Z,6.55
2023-01-25T05:57:56.784Z,6.65
2023-01-25T06:00:24.959Z,6.45
2023-01-25T06:02:52.896Z,6.28
2023-01-25T06:05:20.739Z,5.13
2023-01-25T06:07:49.843Z,6.47
2023-01-25T06:10:17.800Z,6.28
2023-01-25T06:12:45.766Z,5.20
2023-01-25T06:15:13.461Z,5.82
2023-01-25T06:17:41.227Z,6.22
2023-01-25T06:20:10.290Z,5.60
2023-01-25T06:22:38.156Z,6.75
2023-01-25T06:25:08.895Z,5.63
2023-01-25T06:27:37.117Z,6.20
2023-01-25T06:30:05.614Z,6.00
2023-01-25T06:32:34.062Z,5.80
2023-01-25T06:35:01.875Z,5.25
2023-01-25T06:37:29.795Z,6.45
2023-01-25T06:39:57.552Z,7.07
2023-01-25T06:42:26.775Z,6.18
2023-01-25T06:44:54.725Z,7.97
2023-01-25T06:47:22.513Z,6.63
2023-01-25T06:49:50.289Z,6.55
2023-01-25T06:52:18.272Z,6.40
2023-01-25T06:54:46.060Z,6.15
2023-01-25T06:57:13.878Z,6.78
2023-01-25T06:59:42.984Z,6.55
2023-01-25T07:02:15.220Z,7.18
2023-01-25T07:04:43.122Z,6.38
2023-01-25T07:07:11.219Z,6.32
2023-01-25T07:09:39.485Z,6.10
2023-01-25T07:12:08.084Z,5.75
2023-01-25T07:14:35.906Z,7.05
2023-01-25T07:17:05.141Z,6.38
2023-01-25T07:19:33.280Z,7.35
2023-01-25T07:22:01.007Z,7.55
2023-01-25T07:24:29.706Z,7.47
2023-01-25T07:26:57.485Z,7.60
2023-01-25T07:29:25.325Z,6.80
2023-01-25T07:31:53.191Z,8.20
2023-01-25T07:34:22.711Z,7.85
2023-01-25T07:36:50.438Z,7.68
2023-01-25T07:39:18.269Z,7.00
2023-01-25T07:41:46.700Z,6.60
2023-01-25T07:44:14.575Z,7.32
2023-01-25T07:46:42.477Z,9.15
2023-01-25T07:49:10.259Z,8.70
2023-01-25T07:51:39.411Z,11.32
2023-01-25T07:54:11.512Z,27.13
2023-01-25T07:56:40.539Z,43.10
2023-01-25T07:59:09.156Z,19.13
2023-01-25T08:01:37.763Z,14.18
2023-01-25T08:04:06.463Z,16.73
2023-01-25T08:06:38.883Z,13.48
2023-01-25T08:09:11.983Z,14.32
2023-01-25T08:11:39.885Z,17.95
2023-01-25T08:14:08.321Z,11.23
2023-01-25T08:16:36.269Z,8.48
2023-01-25T08:19:05.156Z,7.25
2023-01-25T08:21:34.366Z,7.03
2023-01-25T08:24:04.997Z,8.00
2023-01-25T08:26:34.886Z,6.60
2023-01-25T08:29:03.214Z,7.90
2023-01-25T08:31:32.694Z,6.70
2023-01-25T08:34:02.022Z,8.02
2023-01-25T08:36:30.221Z,6.32
2023-01-25T08:39:00.008Z,7.13
2023-01-25T08:41:29.706Z,6.45
2023-01-25T08:43:59.436Z,5.28
2023-01-25T08:46:31.826Z,6.45
2023-01-25T08:49:00.893Z,6.35
2023-01-25T08:51:31.521Z,6.50
2023-01-25T08:54:03.642Z,6.22
2023-01-25T08:56:31.397Z,6.28
2023-01-25T08:59:00.531Z,5.82
2023-01-25T09:01:30.366Z,5.57
2023-01-25T09:04:00.446Z,5.95
2023-01-25T09:06:30.413Z,11.32
2023-01-25T09:09:01.859Z,8.35
2023-01-25T09:11:31.522Z,18.08
2023-01-25T09:14:03.708Z,31.92
2023-01-25T09:16:31.878Z,14.63
2023-01-25T09:19:02.467Z,8.98
2023-01-25T09:21:30.575Z,7.55
2023-01-25T09:24:07.422Z,6.10
2023-01-25T09:26:37.365Z,5.28
2023-01-25T09:29:07.834Z,10.85
2023-01-25T09:31:36.186Z,6.53
2023-01-25T09:34:04.208Z,5.68
2023-01-25T09:36:32.145Z,4.85
2023-01-25T09:38:59.992Z,5.45
2023-01-25T09:41:40.344Z,5.35
2023-01-25T09:44:27.976Z,5.60
2023-01-25T09:46:59.435Z,8.25
2023-01-25T09:49:43.740Z,7.13
2023-01-25T09:52:27.777Z,5.70
2023-01-25T09:54:55.899Z,6.53
2023-01-25T09:57:29.769Z,5.97
2023-01-25T10:00:04.160Z,6.82
2023-01-25T10:02:40.897Z,6.07
2023-01-25T10:05:13.576Z,6.80
2023-01-25T10:07:54.603Z,5.55
2023-01-25T10:10:27.766Z,4.28
2023-01-25T10:12:55.804Z,5.85
2023-01-25T10:15:38.374Z,5.40
2023-01-25T10:18:22.584Z,6.80
2023-01-25T10:20:55.000Z,7.10
2023-01-25T10:23:37.889Z,6.25
2023-01-25T10:26:11.031Z,6.40
2023-01-25T10:28:48.089Z,6.03
2023-01-25T10:31:20.367Z,5.90
2023-01-25T10:33:49.968Z,6.65
2023-01-25T10:36:22.399Z,6.40
2023-01-25T10:38:50.533Z,6.43
2023-01-25T10:41:24.818Z,7.30
2023-01-25T10:44:12.693Z,4.93
2023-01-25T10:46:45.352Z,5.72
2023-01-25T10:49:22.945Z,7.82
2023-01-25T10:51:50.755Z,6.50
2023-01-25T10:54:18.704Z,6.30
2023-01-25T10:56:47.506Z,5.03
2023-01-25T10:59:19.646Z,7.60
2023-01-25T11:01:49.096Z,6.78
2023-01-25T11:04:26.844Z,5.40
2023-01-25T11:06:54.637Z,6.40
2023-01-25T11:09:34.013Z,5.45
2023-01-25T11:12:04.409Z,5.13
2023-01-25T11:14:33.637Z,6.13
2023-01-25T11:17:04.772Z,5.47
2023-01-25T11:19:35.069Z,5.03
2023-01-25T11:22:04.910Z,5.70
2023-01-25T11:24:34.457Z,6.55
2023-01-25T11:27:20.728Z,5.43
2023-01-25T11:30:09.660Z,5.65
2023-01-25T11:32:40.813Z,6.00
2023-01-25T11:35:14.687Z,5.75
2023-01-25T11:38:00.997Z,5.85
2023-01-25T11:40:38.303Z,6.05
2023-01-25T11:43:22.334Z,6.25
2023-01-25T11:46:09.669Z,5.80
2023-01-25T11:48:59.012Z,7.22
2023-01-25T11:51:30.427Z,5.78
2023-01-25T11:54:38.471Z,6.80
2023-01-25T11:57:19.488Z,5.78
2023-01-25T12:00:03.582Z,6.18
2023-01-25T12:02:55.736Z,8.05
2023-01-25T12:05:38.727Z,9.80
2023-01-25T12:08:19.860Z,9.40
2023-01-25T12:10:57.040Z,7.53
2023-01-25T12:13:38.543Z,10.13
2023-01-25T12:16:33.776Z,6.70
2023-01-25T12:19:29.063Z,7.88
2023-01-25T12:22:10.740Z,7.65
2023-01-25T12:24:52.644Z,6.78
2023-01-25T12:27:34.053Z,5.72
2023-01-25T12:30:13.157Z,7.00
2023-01-25T12:32:45.799Z,6.80
2023-01-25T12:35:26.385Z,6.13
2023-01-25T12:38:01.558Z,7.55
2023-01-25T12:40:43.035Z,7.03
2023-01-25T12:43:17.579Z,6.55
2023-01-25T12:45:47.416Z,6.15
2023-01-25T12:48:20.469Z,5.55
2023-01-25T12:50:52.981Z,6.72
2023-01-25T12:53:24.805Z,6.90
2023-01-25T12:55:55.302Z,6.57
2023-01-25T12:58:37.813Z,6.53
2023-01-25T13:01:12.901Z,7.65
2023-01-25T13:03:54.403Z,7.93
2023-01-25T13:06:27.300Z,7.18
2023-01-25T13:09:04.023Z,7.25
2023-01-25T13:11:35.549Z,7.32
2023-01-25T13:14:30.200Z,7.85
2023-01-25T13:17:14.077Z,8.00
2023-01-25T13:19:43.246Z,6.47
2023-01-25T13:22:12.350Z,7.28
2023-01-25T13:25:11.724Z,7.25
2023-01-25T13:27:39.796Z,7.70
2023-01-25T13:30:32.759Z,7.88
2023-01-25T13:33:04.496Z,8.65
2023-01-25T13:35:37.932Z,10.57
2023-01-25T13:38:29.658Z,8.30
2023-01-25T13:41:14.790Z,7.72
2023-01-25T13:43:45.009Z,8.18
2023-01-25T13:46:16.981Z,8.48
2023-01-25T13:49:05.252Z,7.97
2023-01-25T13:51:38.764Z,8.13
2023-01-25T13:54:06.837Z,7.28
2023-01-25T13:56:37.396Z,7.05
2023-01-25T13:59:05.343Z,7.30
2023-01-25T14:01:35.135Z,7.03
2023-01-25T14:04:05.289Z,7.50
2023-01-25T14:06:36.087Z,8.55
2023-01-25T14:09:07.718Z,8.40
2023-01-25T14:11:44.416Z,8.15
2023-01-25T14:14:20.932Z,7.55
2023-01-25T14:17:01.622Z,9.45
2023-01-25T14:19:31.196Z,11.80
2023-01-25T14:22:20.799Z,10.27
2023-01-25T14:25:07.126Z,9.77
2023-01-25T14:27:38.319Z,8.95
2023-01-25T14:30:07.172Z,8.43
2023-01-25T14:32:36.922Z,10.02
2023-01-25T14:35:43.111Z,8.70
2023-01-25T14:38:24.119Z,9.05
2023-01-25T14:40:56.187Z,13.18
2023-01-25T14:43:26.608Z,10.70
2023-01-25T14:45:54.618Z,9.30
2023-01-25T14:48:38.960Z,9.40
2023-01-25T14:51:16.530Z,10.15
2023-01-25T14:53:48.617Z,8.80
2023-01-25T14:56:36.476Z,12.13
2023-01-25T14:59:07.212Z,10.32
2023-01-25T15:01:40.069Z,11.88
2023-01-25T15:04:13.806Z,9.38
2023-01-25T15:06:49.294Z,9.55
2023-01-25T15:09:40.015Z,10.70
2023-01-25T15:12:32.861Z,9.85
2023-01-25T15:15:02.830Z,11.85
2023-01-25T15:17:39.014Z,11.27
2023-01-25T15:20:08.489Z,10.57
2023-01-25T15:22:36.427Z,11.90
2023-01-25T15:25:05.818Z,11.18
2023-01-25T15:27:33.717Z,9.48
2023-01-25T15:30:03.098Z,9.88
2023-01-25T15:32:30.865Z,8.43
2023-01-25T15:34:58.672Z,9.57
2023-01-25T15:37:26.467Z,9.95
2023-01-25T15:39:54.363Z,9.95
2023-01-25T15:42:22.197Z,9.25
2023-01-25T15:44:50.116Z,8.73
2023-01-25T15:47:19.203Z,9.57
2023-01-25T15:49:49.385Z,9.60
2023-01-25T15:52:17.279Z,9.32
2023-01-25T15:54:52.184Z,11.65
2023-01-25T15:57:30.935Z,12.95
2023-01-25T16:00:01.913Z,11.18
2023-01-25T16:02:31.555Z,10.93
2023-01-25T16:04:59.313Z,9.85
2023-01-25T16:07:30.688Z,9.73
2023-01-25T16:09:58.445Z,8.93
2023-01-25T16:12:26.446Z,14.02
2023-01-25T16:14:54.244Z,9.95
2023-01-25T16:17:22.784Z,9.65
2023-01-25T16:19:52.390Z,9.25
2023-01-25T16:22:20.225Z,11.10
2023-01-25T16:24:48.174Z,11.95
2023-01-25T16:27:22.766Z,12.23
2023-01-25T16:29:50.535Z,13.98
2023-01-25T16:32:18.761Z,28.10
2023-01-25T16:34:46.683Z,28.92
2023-01-25T16:37:17.414Z,24.25
2023-01-25T16:39:45.489Z,17.17
2023-01-25T16:42:13.764Z,10.80
2023-01-25T16:44:41.684Z,9.77
2023-01-25T16:47:15.463Z,10.70
2023-01-25T16:49:43.293Z,10.60
2023-01-25T16:52:12.648Z,9.50
2023-01-25T16:54:41.730Z,9.52
2023-01-25T16:57:20.351Z,9.63
2023-01-25T16:59:48.639Z,8.55
2023-01-25T17:02:16.443Z,12.57
2023-01-25T17:04:44.427Z,11.32
2023-01-25T17:07:12.407Z,14.38
2023-01-25T17:09:41.614Z,21.55
2023-01-25T17:12:12.688Z,9.05
2023-01-25T17:14:40.945Z,8.63
2023-01-25T17:17:08.725Z,9.07
2023-01-25T17:19:37.002Z,9.40
2023-01-25T17:22:05.204Z,9.38
2023-01-25T17:24:35.764Z,8.93
2023-01-25T17:27:05.582Z,9.40
2023-01-25T17:29:33.364Z,10.32
2023-01-25T17:32:01.170Z,10.27
2023-01-25T17:34:28.932Z,10.05
2023-01-25T17:36:56.799Z,9.93
2023-01-25T17:39:24.749Z,9.48
2023-01-25T17:41:52.884Z,10.93
2023-01-25T17:44:23.430Z,9.73
2023-01-25T17:46:51.924Z,10.13
2023-01-25T17:49:22.519Z,10.23
2023-01-25T17:51:50.440Z,11.27
2023-01-25T17:54:18.206Z,12.70
2023-01-25T17:56:46.047Z,11.60
2023-01-25T17:59:13.849Z,10.23
2023-01-25T18:01:43.637Z,11.63
2023-01-25T18:04:13.087Z,10.77
2023-01-25T18:06:41.022Z,10.60
2023-01-25T18:09:09.067Z,10.05
2023-01-25T18:11:39.878Z,9.25
2023-01-25T18:14:09.793Z,10.00
2023-01-25T18:16:40.712Z,9.50
2023-01-25T18:19:10.920Z,10.00
2023-01-25T18:21:39.221Z,10.27
2023-01-25T18:24:24.839Z,13.18
2023-01-25T18:26:55.373Z,10.02
2023-01-25T18:29:46.644Z,10.68
2023-01-25T18:32:15.379Z,10.38
2023-01-25T18:34:44.785Z,11.88
2023-01-25T18:37:29.147Z,13.40
2023-01-25T18:39:57.583Z,11.15
2023-01-25T18:42:27.185Z,11.57
2023-01-25T18:44:55.224Z,11.00
2023-01-25T18:47:23.845Z,10.63
2023-01-25T18:49:54.487Z,8.85
2023-01-25T18:52:23.723Z,11.43
2023-01-25T18:54:51.779Z,9.75
2023-01-25T18:57:20.333Z,10.63
2023-01-25T18:59:48.253Z,9.85
2023-01-25T19:02:17.946Z,11.18
2023-01-25T19:04:46.229Z,9.77
2023-01-25T19:07:16.376Z,10.05
2023-01-25T19:09:44.532Z,10.65
2023-01-25T19:12:12.637Z,9.52
2023-01-25T19:14:40.399Z,9.60
2023-01-25T19:17:09.183Z,10.50
2023-01-25T19:19:37.098Z,11.25
2023-01-25T19:22:05.044Z,11.73
2023-01-25T19:24:34.798Z,11.63
2023-01-25T19:27:02.873Z,12.02
2023-01-25T19:29:31.234Z,10.10
2023-01-25T19:31:59.422Z,10.40
2023-01-25T19:34:27.383Z,9.60
2023-01-25T19:36:55.817Z,10.13
2023-01-25T19:39:24.017Z,9.55
2023-01-25T19:41:59.144Z,9.68
2023-01-25T19:44:27.653Z,9.85
2023-01-25T19:46:55.612Z,10.07
2023-01-25T19:49:23.563Z,10.60
2023-01-25T19:51:53.642Z,10.70
2023-01-25T19:54:23.123Z,11.75
2023-01-25T19:56:52.966Z,11.35
2023-01-25T19:59:24.765Z,10.65
2023-01-25T20:01:53.672Z,11.85
2023-01-25T20:04:23.763Z,11.77
2023-01-25T20:06:52.838Z,12.02
2023-01-25T20:09:27.688Z,11.85
2023-01-25T20:11:58.382Z,10.15
2023-01-25T20:14:26.901Z,13.00
2023-01-25T20:16:54.967Z,11.40
2023-01-25T20:19:24.036Z,11.90
2023-01-25T20:21:53.381Z,10.88
2023-01-25T20:24:21.381Z,10.95
2023-01-25T20:26:49.537Z,11.93
2023-01-25T20:29:19.696Z,11.10
2023-01-25T20:31:48.036Z,12.15
2023-01-25T20:34:18.616Z,10.35
2023-01-25T20:36:47.010Z,11.23
2023-01-25T20:39:17.127Z,12.85
2023-01-25T20:41:45.652Z,9.63
2023-01-25T20:44:15.560Z,9.77
2023-01-25T20:46:45.179Z,12.32
2023-01-25T20:49:17.144Z,10.35
2023-01-25T20:51:45.717Z,10.02
2023-01-25T20:54:14.257Z,10.68
2023-01-25T20:56:42.872Z,12.60
2023-01-25T20:59:10.840Z,10.70
2023-01-25T21:01:39.972Z,9.82
2023-01-25T21:04:10.742Z,10.60
2023-01-25T21:06:38.830Z,11.02
2023-01-25T21:09:07.080Z,11.30
2023-01-25T21:11:34.971Z,11.77
2023-01-25T21:14:03.171Z,12.70
2023-01-25T21:16:31.120Z,11.77
2023-01-25T21:19:01.816Z,12.95
2023-01-25T21:21:34.444Z,11.57
2023-01-25T21:24:05.056Z,11.88
2023-01-25T21:26:34.893Z,14.38
2023-01-25T21:29:03.938Z,12.90
2023-01-25T21:31:34.486Z,10.15
2023-01-25T21:34:03.822Z,10.95
2023-01-25T21:36:33.680Z,12.30
2023-01-25T21:39:01.473Z,16.95
2023-01-25T21:41:31.107Z,13.15
2023-01-25T21:44:17.956Z,12.50
2023-01-25T21:47:06.016Z,10.77
2023-01-25T21:49:51.812Z,11.15
2023-01-25T21:52:21.021Z,11.32
2023-01-25T21:54:48.755Z,11.65
2023-01-25T21:57:16.508Z,10.50
2023-01-25T21:59:44.235Z,10.65
2023-01-25T22:02:14.755Z,9.85
2023-01-25T22:04:42.689Z,11.38
2023-01-25T22:07:10.889Z,11.68
2023-01-25T22:09:40.126Z,10.40
2023-01-25T22:12:07.956Z,11.35
2023-01-25T22:14:36.460Z,12.45
2023-01-25T22:17:04.939Z,9.48
2023-01-25T22:19:33.276Z,10.63
2023-01-25T22:22:01.178Z,9.65
2023-01-25T22:24:28.961Z,11.45
2023-01-25T22:27:16.263Z,9.95
2023-01-25T22:29:44.075Z,10.57
2023-01-25T22:32:11.889Z,10.18
2023-01-25T22:34:39.814Z,10.77
2023-01-25T22:37:07.564Z,11.07
2023-01-25T22:39:35.308Z,10.45
2023-01-25T22:42:04.603Z,11.57
2023-01-25T22:44:32.341Z,11.85
2023-01-25T22:47:00.057Z,11.27
2023-01-25T22:49:27.821Z,10.75
2023-01-25T22:51:55.544Z,11.48
2023-01-25T22:54:23.281Z,11.23
2023-01-25T22:56:50.980Z,13.20
2023-01-25T22:59:19.987Z,10.30
2023-01-25T23:01:47.848Z,10.57
2023-01-25T23:04:15.773Z,11.05
2023-01-25T23:06:43.606Z,9.50
2023-01-25T23:09:11.627Z,8.82
2023-01-25T23:11:39.365Z,9.65
2023-01-25T23:14:25.944Z,11.25
2023-01-25T23:17:15.628Z,10.68
2023-01-25T23:19:42.479Z,16.17
2023-01-25T23:22:10.284Z,12.77
2023-01-25T23:24:37.989Z,10.68
2023-01-25T23:27:05.825Z,9.73
2023-01-25T23:29:33.700Z,11.63
2023-01-25T23:32:02.888Z,10.90
2023-01-25T23:34:34.501Z,10.85
2023-01-25T23:37:02.196Z,10.40
2023-01-25T23:39:29.964Z,10.90
2023-01-25T23:41:57.796Z,11.27
2023-01-25T23:44:25.578Z,10.55
2023-01-25T23:46:53.315Z,9.70
2023-01-25T23:49:22.456Z,10.15
2023-01-25T23:51:50.182Z,11.18
2023-01-25T23:54:18.066Z,11.95
2023-01-25T23:56:45.935Z,10.00
2023-01-25T23:59:13.677Z,10.55
